sensor_id;sensor_type;location;lat;lon;timestamp;pressure;altitude;pressure_sealevel;temperature;humidity
73085;BME280;62974;49.460;10.892;2022-12-18T00:01:22;99081.69;;;-7.64;68.73
73085;BME280;62974;49.460;10.892;2022-12-18T00:03:51;99090.22;;;-7.59;69.39
73085;BME280;62974;49.460;10.892;2022-12-18T00:06:19;99086.09;;;-7.65;68.54
73085;BME280;62974;49.460;10.892;2022-12-18T00:08:48;99079.94;;;-7.64;69.53
73085;BME280;62974;49.460;10.892;2022-12-18T00:11:17;99078.03;;;-7.58;69.64
73085;BME280;62974;49.460;10.892;2022-12-18T00:13:45;99067.28;;;-7.73;68.67
73085;BME280;62974;49.460;10.892;2022-12-18T00:16:15;99062.38;;;-7.82;67.13
73085;BME280;62974;49.460;10.892;2022-12-18T00:18:46;99056.44;;;-7.85;66.27
73085;BME280;62974;49.460;10.892;2022-12-18T00:21:14;99059.78;;;-7.82;67.71
73085;BME280;62974;49.460;10.892;2022-12-18T00:23:43;99064.03;;;-7.79;67.91
73085;BME280;62974;49.460;10.892;2022-12-18T00:26:16;99058.03;;;-7.81;67.97
73085;BME280;62974;49.460;10.892;2022-12-18T00:28:45;99058.88;;;-7.81;67.84
73085;BME280;62974;49.460;10.892;2022-12-18T00:31:15;99066.75;;;-7.82;67.96
73085;BME280;62974;49.460;10.892;2022-12-18T00:33:43;99062.59;;;-7.88;67.59
73085;BME280;62974;49.460;10.892;2022-12-18T00:36:14;99057.66;;;-7.95;66.45
73085;BME280;62974;49.460;10.892;2022-12-18T00:38:42;99063.69;;;-7.93;66.79
73085;BME280;62974;49.460;10.892;2022-12-18T00:41:12;99077.44;;;-7.90;67.15
73085;BME280;62974;49.460;10.892;2022-12-18T00:43:40;99080.00;;;-7.88;68.31
73085;BME280;62974;49.460;10.892;2022-12-18T00:46:07;99082.72;;;-7.68;71.00
73085;BME280;62974;49.460;10.892;2022-12-18T00:48:35;99074.00;;;-7.90;68.78
73085;BME280;62974;49.460;10.892;2022-12-18T00:51:02;99063.81;;;-7.96;67.95
73085;BME280;62974;49.460;10.892;2022-12-18T00:53:31;99078.50;;;-7.95;67.08
73085;BME280;62974;49.460;10.892;2022-12-18T00:55:58;99065.75;;;-8.03;65.99
73085;BME280;62974;49.460;10.892;2022-12-18T00:58:26;99074.47;;;-8.04;66.61
73085;BME280;62974;49.460;10.892;2022-12-18T01:00:54;99081.38;;;-8.03;66.06
73085;BME280;62974;49.460;10.892;2022-12-18T01:03:21;99090.91;;;-8.02;67.17
73085;BME280;62974;49.460;10.892;2022-12-18T01:05:48;99114.13;;;-8.44;69.72
73085;BME280;62974;49.460;10.892;2022-12-18T01:08:16;99111.81;;;-8.53;70.06
73085;BME280;62974;49.460;10.892;2022-12-18T01:10:45;99114.41;;;-8.03;69.88
73085;BME280;62974;49.460;10.892;2022-12-18T01:13:12;99117.78;;;-8.49;69.03
73085;BME280;62974;49.460;10.892;2022-12-18T01:15:40;99113.78;;;-8.35;71.75
73085;BME280;62974;49.460;10.892;2022-12-18T01:18:07;99108.19;;;-7.99;70.57
73085;BME280;62974;49.460;10.892;2022-12-18T01:20:35;99106.81;;;-7.85;71.38
73085;BME280;62974;49.460;10.892;2022-12-18T01:23:02;99101.03;;;-7.93;70.40
73085;BME280;62974;49.460;10.892;2022-12-18T01:25:30;99110.19;;;-7.83;71.55
73085;BME280;62974;49.460;10.892;2022-12-18T01:27:58;99100.91;;;-7.90;69.25
73085;BME280;62974;49.460;10.892;2022-12-18T01:30:26;99093.28;;;-7.96;68.02
73085;BME280;62974;49.460;10.892;2022-12-18T01:32:53;99103.66;;;-7.94;69.02
73085;BME280;62974;49.460;10.892;2022-12-18T01:35:21;99105.66;;;-8.01;67.72
73085;BME280;62974;49.460;10.892;2022-12-18T01:37:48;99118.53;;;-7.96;68.07
73085;BME280;62974;49.460;10.892;2022-12-18T01:40:16;99117.59;;;-7.95;69.19
73085;BME280;62974;49.460;10.892;2022-12-18T01:42:43;99121.22;;;-7.99;67.98
73085;BME280;62974;49.460;10.892;2022-12-18T01:45:26;99118.03;;;-8.08;66.90
73085;BME280;62974;49.460;10.892;2022-12-18T01:47:56;99128.38;;;-8.04;69.40
73085;BME280;62974;49.460;10.892;2022-12-18T01:50:28;99139.41;;;-7.98;69.05
73085;BME280;62974;49.460;10.892;2022-12-18T01:53:00;99139.19;;;-7.92;70.39
73085;BME280;62974;49.460;10.892;2022-12-18T01:55:31;99138.25;;;-7.89;70.54
73085;BME280;62974;49.460;10.892;2022-12-18T01:57:59;99150.47;;;-7.91;69.93
73085;BME280;62974;49.460;10.892;2022-12-18T02:00:29;99158.56;;;-7.74;72.56
73085;BME280;62974;49.460;10.892;2022-12-18T02:02:57;99142.22;;;-7.79;72.49
73085;BME280;62974;49.460;10.892;2022-12-18T02:05:35;99144.03;;;-7.81;72.18
73085;BME280;62974;49.460;10.892;2022-12-18T02:08:09;99143.47;;;-7.89;72.23
73085;BME280;62974;49.460;10.892;2022-12-18T02:10:45;99154.75;;;-8.15;76.10
73085;BME280;62974;49.460;10.892;2022-12-18T02:13:20;99168.44;;;-8.09;76.17
73085;BME280;62974;49.460;10.892;2022-12-18T02:15:57;99164.63;;;-7.74;77.17
73085;BME280;62974;49.460;10.892;2022-12-18T02:18:32;99167.97;;;-7.70;77.49
73085;BME280;62974;49.460;10.892;2022-12-18T02:21:07;99165.38;;;-7.47;77.25
73085;BME280;62974;49.460;10.892;2022-12-18T02:23:40;99162.34;;;-7.60;78.03
73085;BME280;62974;49.460;10.892;2022-12-18T02:26:20;99166.69;;;-7.58;78.71
73085;BME280;62974;49.460;10.892;2022-12-18T02:28:52;99163.94;;;-7.55;78.00
73085;BME280;62974;49.460;10.892;2022-12-18T02:31:24;99159.75;;;-7.60;78.96
73085;BME280;62974;49.460;10.892;2022-12-18T02:33:55;99162.88;;;-7.50;79.34
73085;BME280;62974;49.460;10.892;2022-12-18T02:36:24;99152.50;;;-7.51;79.64
73085;BME280;62974;49.460;10.892;2022-12-18T02:38:54;99154.53;;;-7.36;79.63
73085;BME280;62974;49.460;10.892;2022-12-18T02:41:25;99158.88;;;-7.35;80.05
73085;BME280;62974;49.460;10.892;2022-12-18T02:43:55;99166.22;;;-7.46;80.02
73085;BME280;62974;49.460;10.892;2022-12-18T02:46:28;99183.16;;;-8.08;81.58
73085;BME280;62974;49.460;10.892;2022-12-18T02:49:04;99181.16;;;-7.75;81.22
73085;BME280;62974;49.460;10.892;2022-12-18T02:51:41;99186.06;;;-7.90;83.07
73085;BME280;62974;49.460;10.892;2022-12-18T02:54:18;99173.72;;;-7.37;81.76
73085;BME280;62974;49.460;10.892;2022-12-18T02:56:52;99162.19;;;-7.32;81.39
73085;BME280;62974;49.460;10.892;2022-12-18T02:59:25;99171.34;;;-7.68;82.63
73085;BME280;62974;49.460;10.892;2022-12-18T03:02:01;99162.84;;;-7.25;81.18
73085;BME280;62974;49.460;10.892;2022-12-18T03:04:36;99154.03;;;-7.23;80.43
73085;BME280;62974;49.460;10.892;2022-12-18T03:07:09;99139.06;;;-7.18;80.51
73085;BME280;62974;49.460;10.892;2022-12-18T03:09:41;99146.72;;;-7.60;82.32
73085;BME280;62974;49.460;10.892;2022-12-18T03:12:15;99149.28;;;-7.58;83.10
73085;BME280;62974;49.460;10.892;2022-12-18T03:14:55;99150.19;;;-7.36;84.13
73085;BME280;62974;49.460;10.892;2022-12-18T03:17:26;99149.44;;;-7.39;83.94
73085;BME280;62974;49.460;10.892;2022-12-18T03:19:56;99148.50;;;-7.14;82.37
73085;BME280;62974;49.460;10.892;2022-12-18T03:22:27;99157.94;;;-7.11;82.65
73085;BME280;62974;49.460;10.892;2022-12-18T03:24:58;99169.47;;;-7.40;83.57
73085;BME280;62974;49.460;10.892;2022-12-18T03:27:29;99187.56;;;-7.60;85.22
73085;BME280;62974;49.460;10.892;2022-12-18T03:30:02;99179.13;;;-7.19;84.55
73085;BME280;62974;49.460;10.892;2022-12-18T03:32:38;99174.13;;;-7.25;84.13
73085;BME280;62974;49.460;10.892;2022-12-18T03:35:08;99166.63;;;-7.10;83.70
73085;BME280;62974;49.460;10.892;2022-12-18T03:37:38;99167.09;;;-7.46;85.28
73085;BME280;62974;49.460;10.892;2022-12-18T03:40:06;99177.78;;;-7.77;88.49
73085;BME280;62974;49.460;10.892;2022-12-18T03:42:43;99178.06;;;-7.61;89.53
73085;BME280;62974;49.460;10.892;2022-12-18T03:45:18;99188.47;;;-7.84;90.39
73085;BME280;62974;49.460;10.892;2022-12-18T03:47:55;99185.50;;;-7.75;90.96
73085;BME280;62974;49.460;10.892;2022-12-18T03:50:29;99173.06;;;-7.67;90.58
73085;BME280;62974;49.460;10.892;2022-12-18T03:53:09;99175.03;;;-7.74;89.74
73085;BME280;62974;49.460;10.892;2022-12-18T03:55:42;99156.31;;;-7.14;87.61
73085;BME280;62974;49.460;10.892;2022-12-18T03:58:14;99158.94;;;-7.37;87.87
73085;BME280;62974;49.460;10.892;2022-12-18T04:00:45;99153.91;;;-7.20;86.97
73085;BME280;62974;49.460;10.892;2022-12-18T04:03:16;99160.94;;;-7.68;89.28
73085;BME280;62974;49.460;10.892;2022-12-18T04:05:52;99161.84;;;-6.99;86.13
73085;BME280;62974;49.460;10.892;2022-12-18T04:08:22;99172.69;;;-6.87;85.38
73085;BME280;62974;49.460;10.892;2022-12-18T04:10:50;99189.47;;;-7.88;90.11
73085;BME280;62974;49.460;10.892;2022-12-18T04:13:23;99185.50;;;-7.75;91.32
73085;BME280;62974;49.460;10.892;2022-12-18T04:15:51;99196.09;;;-8.04;92.21
73085;BME280;62974;49.460;10.892;2022-12-18T04:18:19;99196.75;;;-7.98;94.00
73085;BME280;62974;49.460;10.892;2022-12-18T04:20:47;99197.91;;;-7.57;93.35
73085;BME280;62974;49.460;10.892;2022-12-18T04:23:14;99196.97;;;-7.31;92.76
73085;BME280;62974;49.460;10.892;2022-12-18T04:25:41;99194.16;;;-7.25;90.29
73085;BME280;62974;49.460;10.892;2022-12-18T04:28:09;99185.22;;;-6.96;87.72
73085;BME280;62974;49.460;10.892;2022-12-18T04:30:38;99201.31;;;-8.04;93.39
73085;BME280;62974;49.460;10.892;2022-12-18T04:33:08;99198.50;;;-7.74;94.54
73085;BME280;62974;49.460;10.892;2022-12-18T04:35:35;99194.72;;;-7.65;94.34
73085;BME280;62974;49.460;10.892;2022-12-18T04:38:03;99194.84;;;-7.93;94.66
73085;BME280;62974;49.460;10.892;2022-12-18T04:40:31;99196.84;;;-7.51;93.99
73085;BME280;62974;49.460;10.892;2022-12-18T04:42:58;99195.66;;;-7.20;93.04
73085;BME280;62974;49.460;10.892;2022-12-18T04:45:26;99204.88;;;-7.09;91.89
73085;BME280;62974;49.460;10.892;2022-12-18T04:47:56;99195.56;;;-6.93;91.41
73085;BME280;62974;49.460;10.892;2022-12-18T04:50:24;99196.94;;;-7.30;93.09
73085;BME280;62974;49.460;10.892;2022-12-18T04:52:51;99192.72;;;-7.34;93.27
73085;BME280;62974;49.460;10.892;2022-12-18T04:55:19;99189.66;;;-6.98;90.97
73085;BME280;62974;49.460;10.892;2022-12-18T04:57:47;99181.16;;;-7.03;92.38
73085;BME280;62974;49.460;10.892;2022-12-18T05:00:15;99186.03;;;-6.94;91.39
73085;BME280;62974;49.460;10.892;2022-12-18T05:02:42;99190.34;;;-6.93;90.30
73085;BME280;62974;49.460;10.892;2022-12-18T05:05:11;99179.84;;;-7.15;92.13
73085;BME280;62974;49.460;10.892;2022-12-18T05:07:39;99183.63;;;-7.47;94.34
73085;BME280;62974;49.460;10.892;2022-12-18T05:10:07;99179.81;;;-7.37;95.02
73085;BME280;62974;49.460;10.892;2022-12-18T05:12:35;99174.00;;;-6.98;93.73
73085;BME280;62974;49.460;10.892;2022-12-18T05:15:27;99178.81;;;-7.34;94.65
73085;BME280;62974;49.460;10.892;2022-12-18T05:17:55;99187.38;;;-7.07;94.46
73085;BME280;62974;49.460;10.892;2022-12-18T05:20:25;99176.91;;;-6.84;93.69
73085;BME280;62974;49.460;10.892;2022-12-18T05:22:53;99177.13;;;-6.89;92.57
73085;BME280;62974;49.460;10.892;2022-12-18T05:25:22;99187.47;;;-6.87;93.01
73085;BME280;62974;49.460;10.892;2022-12-18T05:27:49;99190.47;;;-6.75;92.30
73085;BME280;62974;49.460;10.892;2022-12-18T05:30:17;99189.19;;;-6.86;92.52
73085;BME280;62974;49.460;10.892;2022-12-18T05:32:44;99185.97;;;-7.39;95.95
73085;BME280;62974;49.460;10.892;2022-12-18T05:35:12;99198.00;;;-7.12;96.73
73085;BME280;62974;49.460;10.892;2022-12-18T05:37:41;99195.34;;;-7.34;97.24
73085;BME280;62974;49.460;10.892;2022-12-18T05:40:10;99200.41;;;-7.54;99.28
73085;BME280;62974;49.460;10.892;2022-12-18T05:42:37;99195.63;;;-7.41;100.00
73085;BME280;62974;49.460;10.892;2022-12-18T05:45:06;99192.38;;;-7.01;98.31
73085;BME280;62974;49.460;10.892;2022-12-18T05:47:33;99198.41;;;-7.23;97.82
73085;BME280;62974;49.460;10.892;2022-12-18T05:50:01;99199.03;;;-6.71;95.76
73085;BME280;62974;49.460;10.892;2022-12-18T05:52:28;99200.66;;;-6.69;94.21
73085;BME280;62974;49.460;10.892;2022-12-18T05:54:57;99198.75;;;-6.63;93.99
73085;BME280;62974;49.460;10.892;2022-12-18T05:57:25;99210.25;;;-6.91;95.37
73085;BME280;62974;49.460;10.892;2022-12-18T05:59:53;99201.34;;;-6.85;96.50
73085;BME280;62974;49.460;10.892;2022-12-18T06:02:20;99204.13;;;-6.90;96.90
73085;BME280;62974;49.460;10.892;2022-12-18T06:04:48;99206.22;;;-6.99;97.53
73085;BME280;62974;49.460;10.892;2022-12-18T06:07:15;99204.50;;;-7.00;98.03
73085;BME280;62974;49.460;10.892;2022-12-18T06:09:43;99210.94;;;-6.86;98.74
73085;BME280;62974;49.460;10.892;2022-12-18T06:12:12;99205.16;;;-6.94;98.69
73085;BME280;62974;49.460;10.892;2022-12-18T06:14:39;99194.94;;;-7.00;98.80
73085;BME280;62974;49.460;10.892;2022-12-18T06:17:07;99194.16;;;-7.02;100.00
73085;BME280;62974;49.460;10.892;2022-12-18T06:19:35;99196.78;;;-6.80;98.40
73085;BME280;62974;49.460;10.892;2022-12-18T06:22:02;99205.63;;;-6.84;98.40
73085;BME280;62974;49.460;10.892;2022-12-18T06:24:30;99218.13;;;-6.92;99.50
73085;BME280;62974;49.460;10.892;2022-12-18T06:26:57;99221.84;;;-6.53;97.21
73085;BME280;62974;49.460;10.892;2022-12-18T06:29:26;99229.59;;;-6.51;96.03
73085;BME280;62974;49.460;10.892;2022-12-18T06:31:53;99224.72;;;-6.60;96.35
73085;BME280;62974;49.460;10.892;2022-12-18T06:34:21;99229.91;;;-6.81;98.59
73085;BME280;62974;49.460;10.892;2022-12-18T06:36:48;99218.78;;;-6.64;98.82
73085;BME280;62974;49.460;10.892;2022-12-18T06:39:16;99226.75;;;-6.67;98.98
73085;BME280;62974;49.460;10.892;2022-12-18T06:41:43;99236.84;;;-6.58;99.19
73085;BME280;62974;49.460;10.892;2022-12-18T06:44:11;99235.69;;;-6.51;98.94
73085;BME280;62974;49.460;10.892;2022-12-18T06:46:40;99235.66;;;-6.73;100.00
73085;BME280;62974;49.460;10.892;2022-12-18T06:49:08;99228.56;;;-6.69;100.00
73085;BME280;62974;49.460;10.892;2022-12-18T06:51:35;99231.44;;;-6.53;100.00
73085;BME280;62974;49.460;10.892;2022-12-18T06:54:03;99227.47;;;-6.63;100.00
73085;BME280;62974;49.460;10.892;2022-12-18T06:56:31;99244.59;;;-6.56;100.00
73085;BME280;62974;49.460;10.892;2022-12-18T06:59:01;99238.00;;;-6.65;100.00
73085;BME280;62974;49.460;10.892;2022-12-18T07:01:28;99244.06;;;-6.43;100.00
73085;BME280;62974;49.460;10.892;2022-12-18T07:03:57;99244.31;;;-6.49;100.00
73085;BME280;62974;49.460;10.892;2022-12-18T07:06:25;99228.91;;;-6.56;100.00
73085;BME280;62974;49.460;10.892;2022-12-18T07:08:54;99235.81;;;-6.54;100.00
73085;BME280;62974;49.460;10.892;2022-12-18T07:11:22;99235.84;;;-6.55;100.00
73085;BME280;62974;49.460;10.892;2022-12-18T07:13:49;99225.50;;;-6.57;100.00
73085;BME280;62974;49.460;10.892;2022-12-18T07:16:19;99220.31;;;-6.58;100.00
73085;BME280;62974;49.460;10.892;2022-12-18T07:18:51;99218.00;;;-6.44;100.00
73085;BME280;62974;49.460;10.892;2022-12-18T07:21:20;99217.91;;;-6.41;100.00
73085;BME280;62974;49.460;10.892;2022-12-18T07:23:47;99217.22;;;-6.46;100.00
73085;BME280;62974;49.460;10.892;2022-12-18T07:26:16;99223.44;;;-6.49;100.00
73085;BME280;62974;49.460;10.892;2022-12-18T07:28:44;99221.34;;;-6.41;100.00
73085;BME280;62974;49.460;10.892;2022-12-18T07:31:14;99234.84;;;-6.30;100.00
73085;BME280;62974;49.460;10.892;2022-12-18T07:33:42;99227.56;;;-6.22;100.00
73085;BME280;62974;49.460;10.892;2022-12-18T07:36:10;99239.09;;;-6.27;100.00
73085;BME280;62974;49.460;10.892;2022-12-18T07:38:40;99253.19;;;-6.31;100.00
73085;BME280;62974;49.460;10.892;2022-12-18T07:41:09;99255.19;;;-6.38;100.00
73085;BME280;62974;49.460;10.892;2022-12-18T07:43:37;99266.97;;;-6.28;100.00
73085;BME280;62974;49.460;10.892;2022-12-18T07:46:07;99264.13;;;-6.43;100.00
73085;BME280;62974;49.460;10.892;2022-12-18T07:48:35;99260.47;;;-6.39;100.00
73085;BME280;62974;49.460;10.892;2022-12-18T07:51:05;99264.06;;;-6.20;100.00
73085;BME280;62974;49.460;10.892;2022-12-18T07:53:35;99262.19;;;-6.17;100.00
73085;BME280;62974;49.460;10.892;2022-12-18T07:56:06;99266.56;;;-6.17;100.00
73085;BME280;62974;49.460;10.892;2022-12-18T07:58:55;99278.06;;;-6.21;100.00
73085;BME280;62974;49.460;10.892;2022-12-18T08:01:23;99269.97;;;-6.15;100.00
73085;BME280;62974;49.460;10.892;2022-12-18T08:03:51;99277.13;;;-6.20;100.00
73085;BME280;62974;49.460;10.892;2022-12-18T08:06:18;99273.97;;;-6.06;100.00
73085;BME280;62974;49.460;10.892;2022-12-18T08:08:50;99275.53;;;-6.24;100.00
73085;BME280;62974;49.460;10.892;2022-12-18T08:11:19;99284.97;;;-6.20;100.00
73085;BME280;62974;49.460;10.892;2022-12-18T08:13:47;99284.66;;;-6.12;100.00
73085;BME280;62974;49.460;10.892;2022-12-18T08:16:15;99280.09;;;-5.86;100.00
73085;BME280;62974;49.460;10.892;2022-12-18T08:18:43;99275.91;;;-5.90;100.00
73085;BME280;62974;49.460;10.892;2022-12-18T08:21:12;99272.09;;;-6.03;100.00
73085;BME280;62974;49.460;10.892;2022-12-18T08:23:39;99274.78;;;-5.84;100.00
73085;BME280;62974;49.460;10.892;2022-12-18T08:26:09;99275.84;;;-5.88;100.00
73085;BME280;62974;49.460;10.892;2022-12-18T08:28:38;99284.34;;;-6.05;100.00
73085;BME280;62974;49.460;10.892;2022-12-18T08:31:06;99282.38;;;-5.98;100.00
73085;BME280;62974;49.460;10.892;2022-12-18T08:33:35;99273.91;;;-5.63;99.57
73085;BME280;62974;49.460;10.892;2022-12-18T08:36:04;99275.00;;;-5.69;99.34
73085;BME280;62974;49.460;10.892;2022-12-18T08:38:32;99269.50;;;-5.83;100.00
73085;BME280;62974;49.460;10.892;2022-12-18T08:41:00;99279.50;;;-5.72;100.00
73085;BME280;62974;49.460;10.892;2022-12-18T08:43:28;99280.28;;;-5.90;100.00
73085;BME280;62974;49.460;10.892;2022-12-18T08:46:14;99287.16;;;-5.88;100.00
73085;BME280;62974;49.460;10.892;2022-12-18T08:48:42;99277.47;;;-5.86;100.00
73085;BME280;62974;49.460;10.892;2022-12-18T08:51:09;99278.31;;;-5.85;100.00
73085;BME280;62974;49.460;10.892;2022-12-18T08:53:37;99275.06;;;-5.70;100.00
73085;BME280;62974;49.460;10.892;2022-12-18T08:56:06;99268.25;;;-5.94;100.00
73085;BME280;62974;49.460;10.892;2022-12-18T08:58:33;99275.97;;;-5.71;100.00
73085;BME280;62974;49.460;10.892;2022-12-18T09:01:01;99275.31;;;-5.76;100.00
73085;BME280;62974;49.460;10.892;2022-12-18T09:03:32;99271.59;;;-5.71;100.00
73085;BME280;62974;49.460;10.892;2022-12-18T09:05:59;99261.81;;;-5.65;100.00
73085;BME280;62974;49.460;10.892;2022-12-18T09:08:27;99264.16;;;-5.59;99.88
73085;BME280;62974;49.460;10.892;2022-12-18T09:10:55;99270.41;;;-5.63;100.00
73085;BME280;62974;49.460;10.892;2022-12-18T09:13:22;99268.28;;;-5.54;100.00
73085;BME280;62974;49.460;10.892;2022-12-18T09:15:51;99264.28;;;-5.62;100.00
73085;BME280;62974;49.460;10.892;2022-12-18T09:18:20;99271.84;;;-5.56;100.00
73085;BME280;62974;49.460;10.892;2022-12-18T09:20:49;99273.09;;;-5.45;100.00
73085;BME280;62974;49.460;10.892;2022-12-18T09:23:19;99274.34;;;-5.74;100.00
73085;BME280;62974;49.460;10.892;2022-12-18T09:25:46;99270.03;;;-5.54;100.00
73085;BME280;62974;49.460;10.892;2022-12-18T09:28:16;99264.16;;;-5.59;100.00
73085;BME280;62974;49.460;10.892;2022-12-18T09:30:46;99264.63;;;-5.50;100.00
73085;BME280;62974;49.460;10.892;2022-12-18T09:33:15;99271.44;;;-5.46;100.00
73085;BME280;62974;49.460;10.892;2022-12-18T09:35:44;99252.69;;;-5.37;100.00
73085;BME280;62974;49.460;10.892;2022-12-18T09:38:14;99261.22;;;-5.32;100.00
73085;BME280;62974;49.460;10.892;2022-12-18T09:40:52;99249.97;;;-5.34;100.00
73085;BME280;62974;49.460;10.892;2022-12-18T09:43:23;99246.03;;;-5.24;100.00
73085;BME280;62974;49.460;10.892;2022-12-18T09:45:57;99246.69;;;-5.18;100.00
73085;BME280;62974;49.460;10.892;2022-12-18T09:48:29;99245.31;;;-5.27;100.00
73085;BME280;62974;49.460;10.892;2022-12-18T09:51:02;99239.78;;;-5.21;100.00
73085;BME280;62974;49.460;10.892;2022-12-18T09:53:35;99240.72;;;-5.22;100.00
73085;BME280;62974;49.460;10.892;2022-12-18T09:56:06;99240.19;;;-5.10;100.00
73085;BME280;62974;49.460;10.892;2022-12-18T09:58:42;99253.91;;;-5.05;100.00
73085;BME280;62974;49.460;10.892;2022-12-18T10:01:14;99249.72;;;-5.09;100.00
73085;BME280;62974;49.460;10.892;2022-12-18T10:03:43;99249.66;;;-5.07;100.00
73085;BME280;62974;49.460;10.892;2022-12-18T10:06:13;99250.75;;;-4.93;100.00
73085;BME280;62974;49.460;10.892;2022-12-18T10:08:46;99242.63;;;-4.87;100.00
73085;BME280;62974;49.460;10.892;2022-12-18T10:11:32;99233.34;;;-4.94;99.72
73085;BME280;62974;49.460;10.892;2022-12-18T10:14:08;99232.19;;;-4.88;99.58
73085;BME280;62974;49.460;10.892;2022-12-18T10:16:44;99226.31;;;-4.93;99.48
73085;BME280;62974;49.460;10.892;2022-12-18T10:19:24;99222.22;;;-4.99;100.00
73085;BME280;62974;49.460;10.892;2022-12-18T10:22:01;99224.75;;;-4.97;100.00
73085;BME280;62974;49.460;10.892;2022-12-18T10:24:40;99217.41;;;-4.89;99.58
73085;BME280;62974;49.460;10.892;2022-12-18T10:27:13;99222.78;;;-4.92;100.00
73085;BME280;62974;49.460;10.892;2022-12-18T10:29:42;99223.03;;;-4.78;100.00
73085;BME280;62974;49.460;10.892;2022-12-18T10:32:14;99216.56;;;-4.71;99.99
73085;BME280;62974;49.460;10.892;2022-12-18T10:34:45;99218.91;;;-4.84;99.96
73085;BME280;62974;49.460;10.892;2022-12-18T10:37:16;99217.06;;;-4.63;98.97
73085;BME280;62974;49.460;10.892;2022-12-18T10:39:46;99217.34;;;-4.69;99.36
73085;BME280;62974;49.460;10.892;2022-12-18T10:42:18;99226.19;;;-4.53;99.30
73085;BME280;62974;49.460;10.892;2022-12-18T10:44:48;99226.34;;;-4.56;99.36
73085;BME280;62974;49.460;10.892;2022-12-18T10:47:27;99230.66;;;-4.55;98.96
73085;BME280;62974;49.460;10.892;2022-12-18T10:49:55;99226.53;;;-4.60;99.18
73085;BME280;62974;49.460;10.892;2022-12-18T10:52:24;99224.50;;;-4.72;99.07
73085;BME280;62974;49.460;10.892;2022-12-18T10:54:55;99224.00;;;-4.81;98.45
73085;BME280;62974;49.460;10.892;2022-12-18T10:57:33;99237.94;;;-4.80;97.46
73085;BME280;62974;49.460;10.892;2022-12-18T11:00:21;99230.09;;;-4.80;97.95
73085;BME280;62974;49.460;10.892;2022-12-18T11:02:50;99243.88;;;-4.95;99.31
73085;BME280;62974;49.460;10.892;2022-12-18T11:05:27;99244.88;;;-4.79;98.21
73085;BME280;62974;49.460;10.892;2022-12-18T11:07:57;99234.31;;;-4.78;97.60
73085;BME280;62974;49.460;10.892;2022-12-18T11:10:31;99230.44;;;-4.88;98.09
73085;BME280;62974;49.460;10.892;2022-12-18T11:13:10;99218.06;;;-4.84;98.02
73085;BME280;62974;49.460;10.892;2022-12-18T11:15:40;99213.81;;;-4.87;97.50
73085;BME280;62974;49.460;10.892;2022-12-18T11:18:19;99213.97;;;-4.90;98.67
73085;BME280;62974;49.460;10.892;2022-12-18T11:20:54;99215.53;;;-4.86;98.06
73085;BME280;62974;49.460;10.892;2022-12-18T11:23:25;99219.34;;;-4.74;98.17
73085;BME280;62974;49.460;10.892;2022-12-18T11:25:57;99217.06;;;-4.63;97.79
73085;BME280;62974;49.460;10.892;2022-12-18T11:28:34;99207.66;;;-4.67;97.84
73085;BME280;62974;49.460;10.892;2022-12-18T11:31:23;99210.69;;;-4.76;97.43
73085;BME280;62974;49.460;10.892;2022-12-18T11:34:01;99205.41;;;-4.75;96.91
73085;BME280;62974;49.460;10.892;2022-12-18T11:36:50;99208.97;;;-4.96;97.62
73085;BME280;62974;49.460;10.892;2022-12-18T11:39:21;99208.06;;;-4.76;97.02
73085;BME280;62974;49.460;10.892;2022-12-18T11:41:57;99188.19;;;-4.80;96.91
73085;BME280;62974;49.460;10.892;2022-12-18T11:44:43;99185.50;;;-4.79;96.43
73085;BME280;62974;49.460;10.892;2022-12-18T11:47:19;99191.31;;;-4.91;96.77
73085;BME280;62974;49.460;10.892;2022-12-18T11:49:52;99189.44;;;-4.89;96.80
73085;BME280;62974;49.460;10.892;2022-12-18T11:52:25;99178.91;;;-4.87;96.94
73085;BME280;62974;49.460;10.892;2022-12-18T11:54:56;99179.25;;;-4.76;96.66
73085;BME280;62974;49.460;10.892;2022-12-18T11:57:33;99174.59;;;-4.88;95.59
73085;BME280;62974;49.460;10.892;2022-12-18T12:00:11;99177.16;;;-4.87;96.57
73085;BME280;62974;49.460;10.892;2022-12-18T12:05:51;99168.63;;;-4.73;96.07
73085;BME280;62974;49.460;10.892;2022-12-18T12:08:30;99177.78;;;-4.63;95.90
73085;BME280;62974;49.460;10.892;2022-12-18T12:11:05;99179.97;;;-4.72;96.11
73085;BME280;62974;49.460;10.892;2022-12-18T12:13:44;99175.06;;;-4.61;95.67
73085;BME280;62974;49.460;10.892;2022-12-18T12:16:17;99175.56;;;-4.72;95.50
73085;BME280;62974;49.460;10.892;2022-12-18T12:18:56;99159.59;;;-4.66;95.24
73085;BME280;62974;49.460;10.892;2022-12-18T12:21:40;99165.72;;;-4.67;96.14
73085;BME280;62974;49.460;10.892;2022-12-18T12:24:19;99160.34;;;-4.64;96.16
73085;BME280;62974;49.460;10.892;2022-12-18T12:26:56;99165.66;;;-4.65;95.52
73085;BME280;62974;49.460;10.892;2022-12-18T12:29:38;99157.91;;;-4.50;95.25
73085;BME280;62974;49.460;10.892;2022-12-18T12:32:25;99162.22;;;-4.49;95.32
73085;BME280;62974;49.460;10.892;2022-12-18T12:35:08;99159.53;;;-4.47;94.77
73085;BME280;62974;49.460;10.892;2022-12-18T12:37:51;99161.72;;;-4.38;94.75
73085;BME280;62974;49.460;10.892;2022-12-18T12:40:23;99163.41;;;-4.37;94.86
73085;BME280;62974;49.460;10.892;2022-12-18T12:43:21;99154.50;;;-4.16;94.39
73085;BME280;62974;49.460;10.892;2022-12-18T12:45:54;99152.44;;;-4.45;94.34
73085;BME280;62974;49.460;10.892;2022-12-18T12:48:33;99153.13;;;-4.42;93.89
73085;BME280;62974;49.460;10.892;2022-12-18T12:51:06;99151.72;;;-4.30;94.36
73085;BME280;62974;49.460;10.892;2022-12-18T12:53:37;99142.53;;;-4.39;94.16
73085;BME280;62974;49.460;10.892;2022-12-18T12:56:08;99144.31;;;-4.22;93.66
73085;BME280;62974;49.460;10.892;2022-12-18T12:58:44;99141.06;;;-4.27;93.68
73085;BME280;62974;49.460;10.892;2022-12-18T13:01:26;99136.91;;;-4.31;94.35
73085;BME280;62974;49.460;10.892;2022-12-18T13:04:03;99134.97;;;-4.28;93.85
73085;BME280;62974;49.460;10.892;2022-12-18T13:06:41;99123.72;;;-4.12;93.20
73085;BME280;62974;49.460;10.892;2022-12-18T13:09:11;99131.50;;;-4.28;93.79
73085;BME280;62974;49.460;10.892;2022-12-18T13:11:40;99128.81;;;-4.27;93.76